Terminal Aerodrome Forecast
Issued by NWS

Home | Current Version | Previous Version | Graphics & Text | Print | Product List | Glossary On
Versions: 1 2 3 4 5 6 7 8 9 10 11 12 13 14 15 16 17 18
000
FTUS43 KMPX 281300 AAA
TAFAXN
TAF AMD
KAXN 281359Z 2814/2912 30012G20KT P6SM SCT005 OVC015
      TEMPO 2814/2816 6SM -RA OVC005
     FM281600 30020G30KT P6SM OVC015
     FM290000 30013G20KT P6SM BKN050
     FM290600 31009KT P6SM OVC100=

USA.gov is the U.S. government's official web portal to all federal, state and local government web resources and services.